Time;durP1;ratioP1;P1;durP2;ratioP2;P2;SDS_P1;SDS_P2;PMS_P1;PMS_P2;Temp;Humidity;BMP_temperature;BMP_pressure;BME280_temperature;BME280_humidity;BME280_pressure;Samples;Min_cycle;Max_cycle;Signal;HPM_P1;HPM_P2
2021/01/25 15:54:08;;;;;;;1999.90;999.90;;;-1.40;99.90;;;;;;5108226;27;20559;-48
2021/01/25 15:56:36;;;;;;;1999.90;999.90;;;-1.50;99.90;;;;;;5099178;28;20504;-49
2021/01/25 15:59:03;;;;;;;1999.90;999.90;;;-1.50;99.90;;;;;;5088539;28;20915;-49
2021/01/25 16:01:29;;;;;;;1999.90;999.90;;;-1.50;99.90;;;;;;5086203;28;20438;-49
2021/01/25 16:03:55;;;;;;;1999.90;999.90;;;-1.50;99.90;;;;;;5084932;28;20441;-49
2021/01/25 16:06:22;;;;;;;1999.90;999.90;;;-1.50;99.90;;;;;;5084623;28;20415;-50
2021/01/25 16:08:48;;;;;;;1999.90;999.90;;;-1.40;99.90;;;;;;5075996;28;20292;-51
2021/01/25 16:11:15;;;;;;;1999.90;999.90;;;-1.40;99.90;;;;;;5094521;28;20997;-49
2021/01/25 16:13:41;;;;;;;1999.90;999.90;;;-1.40;99.90;;;;;;5074383;28;20889;-50
2021/01/25 16:16:08;;;;;;;1999.90;999.90;;;-1.40;99.90;;;;;;5086186;28;20465;-51
2021/01/25 16:18:34;;;;;;;1999.90;999.90;;;-1.40;99.90;;;;;;5088695;28;20293;-49
2021/01/25 16:21:05;;;;;;;1999.90;999.90;;;-1.40;99.90;;;;;;5087911;28;20513;-50
2021/01/25 16:23:31;;;;;;;1999.90;999.90;;;-1.40;99.90;;;;;;5086595;28;20445;-49
2021/01/25 16:25:57;;;;;;;1999.90;999.90;;;-1.40;99.90;;;;;;5083579;28;20436;-49
2021/01/25 16:28:22;;;;;;;1999.90;999.90;;;-1.30;99.90;;;;;;5086823;28;20206;-51
2021/01/25 16:30:48;;;;;;;1999.90;999.90;;;-1.30;99.90;;;;;;5085012;28;20190;-50
2021/01/25 16:33:15;;;;;;;1999.90;999.90;;;-1.30;99.90;;;;;;5085726;28;20602;-49
2021/01/25 16:35:41;;;;;;;1999.90;999.90;;;-1.30;99.90;;;;;;5084749;28;20188;-49
2021/01/25 16:38:06;;;;;;;1999.90;999.90;;;-1.30;99.90;;;;;;5086324;28;20822;-49
2021/01/25 16:40:32;;;;;;;1999.90;999.90;;;-1.30;99.90;;;;;;5092487;28;20446;-49
2021/01/25 16:43:00;;;;;;;1999.90;999.90;;;-1.30;99.90;;;;;;5086737;28;20246;-50
2021/01/25 16:45:26;;;;;;;1999.90;999.90;;;-1.20;99.90;;;;;;5087044;28;20195;-51
2021/01/25 16:47:52;;;;;;;1999.90;999.90;;;-1.20;99.90;;;;;;5082648;28;20486;-52
2021/01/25 16:50:18;;;;;;;1999.90;999.90;;;-1.30;99.90;;;;;;5086869;28;20443;-51
2021/01/25 16:52:43;;;;;;;1999.90;999.90;;;-1.30;99.90;;;;;;5085952;28;20696;-52
2021/01/25 16:55:10;;;;;;;1999.90;999.90;;;-1.30;99.90;;;;;;5087478;28;20513;-51
2021/01/25 16:57:36;;;;;;;1999.90;999.90;;;-1.30;99.90;;;;;;5086836;28;20193;-50
2021/01/25 17:00:04;;;;;;;1999.90;999.90;;;-1.30;99.90;;;;;;5087184;28;20422;-49
2021/01/25 17:02:30;;;;;;;1999.90;999.90;;;-1.30;99.90;;;;;;5090275;28;20186;-49
2021/01/25 17:04:55;;;;;;;1999.90;999.90;;;-1.30;99.90;;;;;;5076406;28;21160;-49
2021/01/25 17:07:21;;;;;;;1999.90;999.90;;;-1.30;99.90;;;;;;5074857;28;20526;-51
2021/01/25 17:09:47;;;;;;;1999.90;999.90;;;-1.30;99.90;;;;;;5077724;28;20528;-50
2021/01/25 17:12:12;;;;;;;1999.90;999.90;;;-1.30;99.90;;;;;;5068980;28;20237;-51
2021/01/25 17:14:38;;;;;;;1999.90;999.90;;;-1.30;99.90;;;;;;5070301;28;20186;-53
2021/01/25 17:17:04;;;;;;;1999.90;999.90;;;-1.30;99.90;;;;;;5069948;28;20213;-49
2021/01/25 17:19:29;;;;;;;1999.90;999.90;;;-1.30;99.90;;;;;;5075390;28;20182;-50
2021/01/25 17:21:57;;;;;;;1999.90;999.90;;;-1.40;99.90;;;;;;5064054;28;20459;-50
2021/01/25 17:24:24;;;;;;;1999.90;999.90;;;-1.40;99.90;;;;;;5072785;28;20246;-51
2021/01/25 17:26:51;;;;;;;1999.90;999.90;;;-1.40;99.90;;;;;;5071053;28;20444;-50
2021/01/25 17:29:16;;;;;;;1999.90;999.90;;;-1.50;99.90;;;;;;5073883;28;20489;-51
2021/01/25 17:31:42;;;;;;;1999.90;999.90;;;-1.50;99.90;;;;;;5076285;28;20423;-50
2021/01/25 17:34:10;;;;;;;1999.90;999.90;;;-1.60;99.90;;;;;;5074342;28;20436;-50
2021/01/25 17:36:37;;;;;;;1999.90;999.90;;;-1.70;99.90;;;;;;5076165;28;20262;-50
2021/01/25 17:39:04;;;;;;;1999.90;999.90;;;-1.70;99.90;;;;;;5070746;28;20966;-50
2021/01/25 17:41:30;;;;;;;1999.90;999.90;;;-1.80;99.90;;;;;;5069655;28;20455;-50
2021/01/25 17:43:55;;;;;;;1999.90;999.90;;;-1.80;99.90;;;;;;5062047;28;20838;-51
2021/01/25 17:46:21;;;;;;;1999.90;999.90;;;-1.80;99.90;;;;;;5074148;28;20190;-50
2021/01/25 17:48:47;;;;;;;1999.90;999.90;;;-1.90;99.90;;;;;;5071227;28;20280;-51
2021/01/25 17:51:13;;;;;;;1999.90;999.90;;;-1.90;99.90;;;;;;5071895;28;20193;-50
2021/01/25 17:53:39;;;;;;;1999.90;999.90;;;-1.90;99.90;;;;;;5066252;28;20467;-50
2021/01/25 17:56:05;;;;;;;1999.90;999.90;;;-2.00;99.90;;;;;;5083378;28;20461;-50
2021/01/25 17:58:31;;;;;;;1999.90;999.90;;;-2.10;99.90;;;;;;5052211;28;20207;-51
2021/01/25 18:00:57;;;;;;;1999.90;999.90;;;-2.20;99.90;;;;;;5068456;28;20430;-50
2021/01/25 18:03:23;;;;;;;1999.90;999.90;;;-2.20;99.90;;;;;;5065693;28;20493;-50
2021/01/25 18:05:49;;;;;;;1999.90;999.90;;;-2.30;99.90;;;;;;5067261;28;20432;-50
2021/01/25 18:08:16;;;;;;;1999.90;999.90;;;-2.40;99.90;;;;;;5070465;28;20992;-49
2021/01/25 18:10:42;;;;;;;1999.90;999.90;;;-2.40;99.90;;;;;;5070753;28;20420;-49
2021/01/25 18:13:08;;;;;;;1999.90;999.90;;;-2.50;99.90;;;;;;5070435;28;20855;-50
2021/01/25 18:15:35;;;;;;;1999.90;999.90;;;-2.50;99.90;;;;;;5069211;28;20443;-50
2021/01/25 18:18:02;;;;;;;1999.90;999.90;;;-2.60;99.90;;;;;;5071115;28;20448;-51
2021/01/25 18:20:28;;;;;;;1999.90;999.90;;;-2.70;99.90;;;;;;5066949;28;20430;-49
2021/01/25 18:22:55;;;;;;;1999.90;999.90;;;-2.70;99.90;;;;;;5070186;28;20443;-50
2021/01/25 18:25:21;;;;;;;1999.90;999.90;;;-2.80;99.90;;;;;;5069141;28;20458;-50
2021/01/25 18:27:46;;;;;;;1999.90;999.90;;;-2.80;99.90;;;;;;5067091;28;20468;-49
2021/01/25 18:30:15;;;;;;;1999.90;999.90;;;-2.90;99.90;;;;;;5052822;28;20435;-49
2021/01/25 18:32:40;;;;;;;1999.90;999.90;;;-3.00;99.90;;;;;;5081634;28;20708;-49
2021/01/25 18:35:08;;;;;;;1999.90;999.90;;;-3.00;99.90;;;;;;5082856;28;20426;-49
2021/01/25 18:37:34;;;;;;;1999.90;999.90;;;-3.10;99.90;;;;;;5080700;28;20208;-49
2021/01/25 18:39:59;;;;;;;1999.90;999.90;;;-3.20;99.90;;;;;;5078689;28;20448;-49
2021/01/25 18:42:25;;;;;;;1999.90;999.90;;;-3.20;99.90;;;;;;5066957;28;20932;-49
2021/01/25 18:44:51;;;;;;;1999.90;999.90;;;-3.30;99.90;;;;;;5070319;28;20177;-50
2021/01/25 18:47:17;;;;;;;1999.90;999.90;;;-3.30;99.90;;;;;;5069289;28;20658;-51
2021/01/25 18:49:43;;;;;;;1999.90;999.90;;;-3.40;99.90;;;;;;5050669;28;20268;-51
2021/01/25 18:52:09;;;;;;;1999.90;999.90;;;-3.40;99.90;;;;;;5067684;28;20474;-49
2021/01/25 18:54:34;;;;;;;1999.90;999.90;;;-3.50;99.90;;;;;;5067441;28;20443;-50
2021/01/25 18:57:01;;;;;;;1999.90;999.90;;;-3.50;99.90;;;;;;5070924;28;20691;-49
2021/01/25 18:59:26;;;;;;;1999.90;999.90;;;-3.60;99.90;;;;;;5074593;28;20627;-51
2021/01/25 19:01:52;;;;;;;1999.90;999.90;;;-3.60;99.90;;;;;;5068478;28;20474;-49
2021/01/25 19:04:17;;;;;;;1999.90;999.90;;;-3.70;99.90;;;;;;5064301;28;20177;-52
2021/01/25 19:06:44;;;;;;;1999.90;999.90;;;-3.80;99.90;;;;;;5068414;28;20189;-49
2021/01/25 19:09:09;;;;;;;1999.90;999.90;;;-3.80;99.90;;;;;;5071365;28;20179;-49
2021/01/25 19:11:35;;;;;;;1999.90;999.90;;;-3.90;99.90;;;;;;5074365;28;20944;-51
2021/01/25 19:14:01;;;;;;;1999.90;999.90;;;-4.00;99.90;;;;;;5069673;28;20446;-51
2021/01/25 19:16:28;;;;;;;1999.90;999.90;;;-4.00;99.90;;;;;;5068273;28;20962;-49
2021/01/25 19:18:54;;;;;;;1999.90;999.90;;;-4.10;99.90;;;;;;5067199;28;20196;-48
2021/01/25 19:21:20;;;;;;;1999.90;999.90;;;-4.10;99.90;;;;;;5067763;28;21032;-49
2021/01/25 19:23:45;;;;;;;1999.90;999.90;;;-4.10;99.90;;;;;;5066634;28;20282;-50
2021/01/25 19:26:12;;;;;;;1999.90;999.90;;;-4.00;99.90;;;;;;5065596;28;20189;-49
2021/01/25 19:28:38;;;;;;;1999.90;999.90;;;-4.00;99.90;;;;;;5068151;28;20614;-50
2021/01/25 19:31:04;;;;;;;1999.90;999.90;;;-3.90;99.90;;;;;;5071467;28;20449;-50
2021/01/25 19:33:30;;;;;;;1999.90;999.90;;;-3.80;99.90;;;;;;5065384;28;20514;-50
2021/01/25 19:35:56;;;;;;;1999.90;999.90;;;-3.70;99.90;;;;;;5050624;28;20451;-48
2021/01/25 19:38:22;;;;;;;1999.90;999.90;;;-3.60;99.90;;;;;;5066803;28;20204;-48
2021/01/25 19:40:47;;;;;;;1999.90;999.90;;;-3.50;99.90;;;;;;5067155;28;20243;-48
2021/01/25 19:43:15;;;;;;;1999.90;999.90;;;-3.40;99.90;;;;;;5066398;28;20504;-48
2021/01/25 19:45:45;;;;;;;1999.90;999.90;;;-3.30;99.90;;;;;;5069262;28;20193;-48
2021/01/25 19:48:14;;;;;;;1999.90;999.90;;;-3.20;99.90;;;;;;5067683;28;20516;-49
2021/01/25 19:50:40;;;;;;;1999.90;999.90;;;-3.20;99.90;;;;;;5065596;28;20441;-49
2021/01/25 19:53:06;;;;;;;1999.90;999.90;;;-3.20;99.90;;;;;;5065295;28;20956;-48
2021/01/25 19:55:32;;;;;;;1999.90;999.90;;;-3.10;99.90;;;;;;5068121;28;20518;-48
2021/01/25 19:57:57;;;;;;;1999.90;999.90;;;-3.10;99.90;;;;;;5066864;28;20213;-49
2021/01/25 20:00:26;;;;;;;1999.90;999.90;;;-3.00;99.90;;;;;;5068096;28;20453;-48
2021/01/25 20:02:53;;;;;;;1999.90;999.90;;;-3.00;99.90;;;;;;5073439;28;20272;-48
2021/01/25 20:05:22;;;;;;;1999.90;999.90;;;-3.00;99.90;;;;;;5073237;28;20434;-49
2021/01/25 20:07:48;;;;;;;1999.90;999.90;;;-3.00;99.90;;;;;;5067112;28;20967;-49
2021/01/25 20:10:16;;;;;;;1999.90;999.90;;;-2.90;99.90;;;;;;5070942;28;20451;-51
2021/01/25 20:12:49;;;;;;;1999.90;999.90;;;-2.90;99.90;;;;;;5070762;28;20483;-48
2021/01/25 20:15:15;;;;;;;1999.90;999.90;;;-2.90;99.90;;;;;;5071342;28;20542;-48
2021/01/25 20:17:41;;;;;;;1999.90;999.90;;;-2.90;99.90;;;;;;5066308;28;20539;-52
2021/01/25 20:20:09;;;;;;;1999.90;999.90;;;-2.90;99.90;;;;;;5072121;28;20442;-48
2021/01/25 20:22:35;;;;;;;1999.90;999.90;;;-2.90;99.90;;;;;;5065346;28;20447;-48
2021/01/25 20:25:01;;;;;;;1999.90;999.90;;;-2.90;99.90;;;;;;5068451;28;20467;-48
2021/01/25 20:27:30;;;;;;;1999.90;999.90;;;-2.90;99.90;;;;;;5079607;28;20965;-48
2021/01/25 20:29:57;;;;;;;1999.90;999.90;;;-2.80;99.90;;;;;;5077789;28;20271;-48
2021/01/25 20:32:23;;;;;;;1999.90;999.90;;;-2.80;99.90;;;;;;5077945;28;21087;-48
2021/01/25 20:34:49;;;;;;;1999.90;999.90;;;-2.80;99.90;;;;;;5075097;28;20438;-48
2021/01/25 20:37:15;;;;;;;1999.90;999.90;;;-2.80;99.90;;;;;;5079646;28;20440;-49
2021/01/25 20:39:44;;;;;;;1999.90;999.90;;;-2.80;99.90;;;;;;5073457;28;20846;-49
2021/01/25 20:42:09;;;;;;;1999.90;999.90;;;-2.80;99.90;;;;;;5089060;28;20215;-48
2021/01/25 20:44:35;;;;;;;1999.90;999.90;;;-2.90;99.90;;;;;;5075630;28;20936;-49
2021/01/25 20:47:00;;;;;;;1999.90;999.90;;;-2.90;99.90;;;;;;5082077;28;20215;-49
2021/01/25 20:49:26;;;;;;;1999.90;999.90;;;-3.00;99.90;;;;;;5054306;28;20250;-48
2021/01/25 20:51:52;;;;;;;1999.90;999.90;;;-3.10;99.90;;;;;;5072963;28;20193;-48
2021/01/25 20:54:17;;;;;;;1999.90;999.90;;;-3.10;99.90;;;;;;5074801;28;20189;-48
2021/01/25 20:56:43;;;;;;;1999.90;999.90;;;-3.10;99.90;;;;;;5076830;28;21632;-49
2021/01/25 20:59:09;;;;;;;1999.90;999.90;;;-3.10;99.90;;;;;;5059277;28;20221;-49
2021/01/25 21:01:34;;;;;;;1999.90;999.90;;;-3.10;99.90;;;;;;5057740;28;20187;-52
2021/01/25 21:04:00;;;;;;;1999.90;999.90;;;-3.10;99.90;;;;;;5077536;28;20249;-48
2021/01/25 21:06:26;;;;;;;1999.90;999.90;;;-3.10;99.90;;;;;;5077129;28;20188;-49
2021/01/25 21:08:51;;;;;;;1999.90;999.90;;;-3.00;99.90;;;;;;5074509;28;20698;-49
2021/01/25 21:11:17;;;;;;;1999.90;999.90;;;-3.00;99.90;;;;;;5072769;28;20258;-48
2021/01/25 21:13:43;;;;;;;1999.90;999.90;;;-3.00;99.90;;;;;;5074262;28;20228;-49
2021/01/25 21:16:09;;;;;;;1999.90;999.90;;;-2.90;99.90;;;;;;5063404;28;20276;-49
2021/01/25 21:18:38;;;;;;;1999.90;999.90;;;-2.90;99.90;;;;;;5078313;28;20465;-49
2021/01/25 21:21:05;;;;;;;1999.90;999.90;;;-2.90;99.90;;;;;;5072218;28;20191;-51
2021/01/25 21:23:31;;;;;;;1999.90;999.90;;;-2.90;99.90;;;;;;5069426;28;20508;-49
2021/01/25 21:25:57;;;;;;;1999.90;999.90;;;-3.00;99.90;;;;;;5069056;28;20430;-48
2021/01/25 21:28:22;;;;;;;1999.90;999.90;;;-3.00;99.90;;;;;;5075056;28;20205;-50
2021/01/25 21:30:49;;;;;;;1999.90;999.90;;;-3.00;99.90;;;;;;5071039;28;20654;-48
2021/01/25 21:33:16;;;;;;;1999.90;999.90;;;-3.00;99.90;;;;;;5075904;28;20224;-48
2021/01/25 21:35:44;;;;;;;1999.90;999.90;;;-2.90;99.90;;;;;;5069763;28;21361;-49
2021/01/25 21:38:10;;;;;;;1999.90;999.90;;;-2.90;99.90;;;;;;5071309;28;20983;-48
2021/01/25 21:40:37;;;;;;;1999.90;999.90;;;-2.80;99.90;;;;;;5064429;28;20458;-48
2021/01/25 21:43:03;;;;;;;1999.90;999.90;;;-2.70;99.90;;;;;;5072155;28;20464;-48
2021/01/25 21:45:31;;;;;;;1999.90;999.90;;;-2.70;99.90;;;;;;5074166;28;20569;-48
2021/01/25 21:47:58;;;;;;;1999.90;999.90;;;-2.70;99.90;;;;;;5084348;28;20503;-49
2021/01/25 21:50:25;;;;;;;1999.90;999.90;;;-2.70;99.90;;;;;;5086788;28;20549;-48
2021/01/25 21:52:51;;;;;;;1999.90;999.90;;;-2.70;99.90;;;;;;5079533;28;20471;-49
2021/01/25 21:55:19;;;;;;;1999.90;999.90;;;-2.70;99.90;;;;;;5073050;28;20444;-48
2021/01/25 21:57:44;;;;;;;1999.90;999.90;;;-2.70;99.90;;;;;;5078906;28;20510;-49
2021/01/25 22:00:12;;;;;;;1999.90;999.90;;;-2.70;99.90;;;;;;5081787;28;20934;-48
2021/01/25 22:02:42;;;;;;;1999.90;999.90;;;-2.60;99.90;;;;;;5071086;28;20211;-49
2021/01/25 22:05:09;;;;;;;1999.90;999.90;;;-2.60;99.90;;;;;;5071910;28;20442;-48
2021/01/25 22:07:35;;;;;;;1999.90;999.90;;;-2.70;99.90;;;;;;5076507;28;20513;-51
2021/01/25 22:10:01;;;;;;;1999.90;999.90;;;-2.70;99.90;;;;;;5085382;28;20982;-48
2021/01/25 22:12:26;;;;;;;1999.90;999.90;;;-2.80;99.90;;;;;;5085015;28;20273;-48
2021/01/25 22:14:52;;;;;;;1999.90;999.90;;;-2.90;99.90;;;;;;5070514;28;20907;-49
2021/01/25 22:17:18;;;;;;;1999.90;999.90;;;-3.00;99.90;;;;;;5071469;28;20208;-48
2021/01/25 22:19:44;;;;;;;1999.90;999.90;;;-3.10;99.90;;;;;;5090370;28;20267;-49
2021/01/25 22:22:09;;;;;;;1999.90;999.90;;;-3.10;99.90;;;;;;5082392;28;20583;-48
2021/01/25 22:24:35;;;;;;;1999.90;999.90;;;-3.20;99.90;;;;;;5090653;28;20183;-49
2021/01/25 22:27:01;;;;;;;1999.90;999.90;;;-3.30;99.90;;;;;;5074541;28;20216;-48
2021/01/25 22:29:26;;;;;;;1999.90;999.90;;;-3.20;99.90;;;;;;5070203;28;20195;-49
2021/01/25 22:31:55;;;;;;;1999.90;999.90;;;-3.20;99.90;;;;;;5070394;28;20457;-48
2021/01/25 22:34:21;;;;;;;1999.90;999.90;;;-3.30;99.90;;;;;;5070300;28;20656;-50
2021/01/25 22:36:47;;;;;;;1999.90;999.90;;;-3.40;99.90;;;;;;5069026;28;20447;-49
2021/01/25 22:39:13;;;;;;;1999.90;999.90;;;-3.50;99.90;;;;;;5080954;28;20187;-49
2021/01/25 22:41:39;;;;;;;1999.90;999.90;;;-3.60;99.90;;;;;;5083287;28;20185;-51
2021/01/25 22:44:05;;;;;;;1999.90;999.90;;;-3.60;99.90;;;;;;5073066;28;20505;-48
2021/01/25 22:46:30;;;;;;;1999.90;999.90;;;-3.70;99.90;;;;;;5073326;28;20196;-48
2021/01/25 22:48:56;;;;;;;1999.90;999.90;;;-3.80;99.90;;;;;;5079701;28;20639;-49
2021/01/25 22:51:22;;;;;;;1999.90;999.90;;;-3.70;99.90;;;;;;5069658;28;20471;-49
2021/01/25 22:53:48;;;;;;;1999.90;999.90;;;-3.70;99.90;;;;;;5068025;28;20305;-49
2021/01/25 22:56:14;;;;;;;1999.90;999.90;;;-3.80;99.90;;;;;;5067969;28;20588;-50
